createdAt,value
2022-12-12T00:02:53.506Z,10.98
2022-12-12T00:05:56.476Z,11.98
2022-12-12T00:08:59.398Z,11.40
2022-12-12T00:12:02.126Z,12.50
2022-12-12T00:15:05.468Z,11.23
2022-12-12T00:18:08.211Z,14.43
2022-12-12T00:21:17.323Z,11.63
2022-12-12T00:24:20.023Z,12.98
2022-12-12T00:27:22.794Z,16.05
2022-12-12T00:30:25.575Z,15.23
2022-12-12T00:33:28.311Z,13.02
2022-12-12T00:36:32.034Z,11.77
2022-12-12T00:39:35.002Z,12.70
2022-12-12T00:42:37.814Z,14.63
2022-12-12T00:45:40.676Z,14.35
2022-12-12T00:48:43.807Z,12.18
2022-12-12T00:51:46.594Z,12.50
2022-12-12T00:54:49.369Z,13.23
2022-12-12T00:57:52.427Z,12.77
2022-12-12T01:00:55.271Z,13.07
2022-12-12T01:03:59.016Z,13.75
2022-12-12T01:07:01.946Z,13.70
2022-12-12T01:10:05.742Z,13.00
2022-12-12T01:13:08.737Z,15.32
2022-12-12T01:16:12.718Z,14.35
2022-12-12T01:19:15.839Z,14.82
2022-12-12T01:22:18.623Z,15.50
2022-12-12T01:25:21.503Z,15.15
2022-12-12T01:28:24.320Z,14.02
2022-12-12T01:31:27.145Z,17.92
2022-12-12T01:34:29.999Z,17.02
2022-12-12T01:37:32.868Z,14.93
2022-12-12T01:40:35.633Z,14.90
2022-12-12T01:43:38.663Z,15.82
2022-12-12T01:46:45.055Z,13.93
2022-12-12T01:50:09.435Z,16.65
2022-12-12T01:53:16.136Z,16.15
2022-12-12T01:56:20.152Z,17.83
2022-12-12T01:59:25.869Z,16.70
2022-12-12T02:02:30.003Z,14.32
2022-12-12T02:05:46.906Z,16.67
2022-12-12T02:08:53.126Z,16.33
2022-12-12T02:11:58.848Z,12.80
2022-12-12T02:15:02.247Z,14.07
2022-12-12T02:18:18.566Z,15.52
2022-12-12T02:21:20.887Z,15.13
2022-12-12T02:25:08.633Z,14.65
2022-12-12T02:28:48.811Z,13.88
2022-12-12T02:31:57.732Z,13.65
2022-12-12T02:35:18.879Z,14.70
2022-12-12T02:38:34.166Z,15.15
2022-12-12T02:41:43.839Z,14.20
2022-12-12T02:44:59.367Z,16.80
2022-12-12T02:48:16.990Z,13.95
2022-12-12T02:51:21.629Z,16.00
2022-12-12T02:54:24.281Z,15.25
2022-12-12T02:57:27.803Z,14.02
2022-12-12T03:00:40.807Z,17.50
2022-12-12T03:04:20.984Z,12.50
2022-12-12T03:08:00.455Z,15.68
2022-12-12T03:11:08.128Z,17.62
2022-12-12T03:14:30.848Z,16.25
2022-12-12T03:17:42.855Z,16.40
2022-12-12T03:20:50.890Z,14.60
2022-12-12T03:24:00.003Z,16.48
2022-12-12T03:27:25.119Z,17.27
2022-12-12T03:30:33.350Z,16.90
2022-12-12T03:33:38.715Z,18.45
2022-12-12T03:37:03.297Z,16.77
2022-12-12T03:43:20.361Z,16.48
2022-12-12T03:46:31.770Z,17.60
2022-12-12T03:50:04.371Z,17.50
2022-12-12T03:53:19.020Z,20.00
2022-12-12T03:56:27.472Z,16.37
2022-12-12T03:59:36.921Z,18.80
2022-12-12T04:02:42.221Z,17.58
2022-12-12T04:06:15.877Z,14.23
2022-12-12T04:09:39.002Z,15.85
2022-12-12T04:12:59.999Z,16.77
2022-12-12T04:16:11.069Z,17.67
2022-12-12T04:19:39.390Z,17.10
2022-12-12T04:23:27.652Z,14.50
2022-12-12T04:26:40.490Z,15.48
2022-12-12T04:29:50.290Z,13.25
2022-12-12T04:33:03.347Z,14.87
2022-12-12T04:36:10.470Z,12.55
2022-12-12T04:39:16.531Z,16.33
2022-12-12T04:42:24.253Z,14.15
2022-12-12T04:45:43.914Z,13.20
2022-12-12T04:49:02.892Z,12.10
2022-12-12T04:52:09.670Z,16.62
2022-12-12T04:55:24.539Z,15.57
2022-12-12T04:58:27.762Z,14.52
2022-12-12T05:01:49.576Z,13.45
2022-12-12T05:05:17.115Z,10.40
2022-12-12T05:08:25.605Z,15.25
2022-12-12T05:11:28.935Z,13.75
2022-12-12T05:14:32.075Z,12.27
2022-12-12T05:17:43.609Z,14.10
2022-12-12T05:20:46.412Z,13.88
2022-12-12T05:23:49.204Z,16.37
2022-12-12T05:26:51.932Z,13.18
2022-12-12T05:29:54.683Z,13.27
2022-12-12T05:32:57.694Z,14.05
2022-12-12T05:36:00.422Z,15.95
2022-12-12T05:39:03.431Z,13.18
2022-12-12T05:42:06.215Z,12.68
2022-12-12T05:45:10.859Z,15.88
2022-12-12T05:48:13.960Z,15.32
2022-12-12T05:51:18.025Z,16.87
2022-12-12T05:54:21.717Z,17.40
2022-12-12T05:57:25.006Z,16.55
2022-12-12T06:00:27.854Z,18.25
2022-12-12T06:03:31.609Z,17.20
2022-12-12T06:06:34.136Z,14.73
2022-12-12T06:09:37.494Z,20.65
2022-12-12T06:12:39.979Z,16.70
2022-12-12T06:15:43.143Z,15.25
2022-12-12T06:18:50.008Z,17.10
2022-12-12T06:21:53.358Z,16.17
2022-12-12T06:24:55.918Z,14.27
2022-12-12T06:27:59.312Z,15.02
2022-12-12T06:31:04.503Z,19.85
2022-12-12T06:34:09.830Z,21.27
2022-12-12T06:37:17.166Z,16.48
2022-12-12T06:40:20.786Z,14.65
2022-12-12T06:43:24.084Z,20.23
2022-12-12T06:46:29.570Z,16.92
2022-12-12T06:49:32.081Z,16.75
2022-12-12T06:52:35.183Z,16.92
2022-12-12T06:55:44.250Z,17.47
2022-12-12T06:58:47.842Z,19.05
2022-12-12T07:01:50.787Z,16.10
2022-12-12T07:07:59.176Z,17.73
2022-12-12T07:11:08.077Z,20.37
2022-12-12T07:14:10.987Z,22.70
2022-12-12T07:20:16.982Z,17.67
2022-12-12T07:26:23.806Z,16.30
2022-12-12T07:29:26.937Z,18.98
2022-12-12T07:32:29.515Z,24.60
2022-12-12T07:35:32.846Z,18.45
2022-12-12T07:38:36.587Z,17.93
2022-12-12T07:41:40.814Z,19.37
2022-12-12T07:44:43.636Z,18.48
2022-12-12T07:47:47.128Z,16.67
2022-12-12T07:50:50.224Z,16.37
2022-12-12T07:53:53.325Z,16.12
2022-12-12T07:56:55.872Z,17.03
2022-12-12T07:59:59.029Z,20.80
2022-12-12T08:03:01.833Z,13.97
2022-12-12T08:09:09.193Z,13.75
2022-12-12T08:15:17.835Z,15.77
2022-12-12T08:18:20.883Z,14.98
2022-12-12T08:21:26.070Z,15.35
2022-12-12T08:24:30.044Z,15.10
2022-12-12T08:27:32.730Z,15.45
2022-12-12T08:30:38.480Z,17.52
2022-12-12T08:33:41.514Z,15.25
2022-12-12T08:39:55.360Z,14.97
2022-12-12T08:42:58.830Z,12.15
2022-12-12T08:46:02.963Z,12.03
2022-12-12T08:49:06.247Z,11.90
2022-12-12T08:52:10.502Z,12.07
2022-12-12T08:55:15.089Z,12.50
2022-12-12T08:58:18.358Z,11.02
2022-12-12T09:01:24.373Z,9.85
2022-12-12T09:04:27.791Z,10.88
2022-12-12T09:07:30.950Z,10.65
2022-12-12T09:10:33.456Z,9.18
2022-12-12T09:13:37.400Z,9.30
2022-12-12T09:16:40.208Z,11.20
2022-12-12T09:19:43.299Z,10.07
2022-12-12T09:22:45.914Z,8.90
2022-12-12T09:28:51.476Z,9.13
2022-12-12T09:34:57.207Z,9.18
2022-12-12T09:41:07.223Z,7.62
2022-12-12T09:44:18.756Z,9.15
2022-12-12T09:47:56.996Z,9.65
2022-12-12T09:51:00.140Z,10.00
2022-12-12T09:54:02.900Z,8.98
2022-12-12T09:57:38.571Z,10.50
2022-12-12T10:00:48.955Z,12.52
2022-12-12T10:04:13.949Z,10.90
2022-12-12T10:07:27.147Z,8.05
2022-12-12T10:10:42.507Z,10.77
2022-12-12T10:13:45.527Z,11.30
2022-12-12T10:16:55.682Z,10.20
2022-12-12T10:20:05.295Z,11.43
2022-12-12T10:23:46.341Z,12.35
2022-12-12T10:26:48.872Z,11.12
2022-12-12T10:29:53.954Z,11.35
2022-12-12T10:33:15.675Z,8.30
2022-12-12T10:36:40.825Z,9.88
2022-12-12T10:40:31.562Z,9.68
2022-12-12T10:43:36.991Z,11.10
2022-12-12T10:47:06.889Z,11.75
2022-12-12T10:50:13.373Z,11.40
2022-12-12T10:53:16.252Z,11.23
2022-12-12T10:56:27.512Z,9.40
2022-12-12T10:59:30.071Z,12.18
2022-12-12T11:02:43.875Z,10.57
2022-12-12T11:05:47.496Z,9.98
2022-12-12T11:09:06.543Z,10.13
2022-12-12T11:12:09.693Z,11.85
2022-12-12T11:15:17.225Z,9.70
2022-12-12T11:18:22.217Z,11.77
2022-12-12T11:21:26.096Z,11.18
2022-12-12T11:24:33.035Z,11.43
2022-12-12T11:27:39.746Z,12.13
2022-12-12T11:30:44.172Z,10.85
2022-12-12T11:33:52.776Z,9.98
2022-12-12T11:36:59.580Z,13.00
2022-12-12T11:40:06.221Z,11.57
2022-12-12T11:43:28.765Z,9.88
2022-12-12T11:46:33.642Z,11.15
2022-12-12T11:49:46.877Z,9.32
2022-12-12T11:55:56.639Z,10.23
2022-12-12T11:59:21.946Z,8.60
2022-12-12T12:02:36.403Z,9.50
2022-12-12T12:05:58.310Z,9.25
2022-12-12T12:09:37.170Z,8.88
2022-12-12T12:12:55.151Z,11.20
2022-12-12T12:16:34.279Z,11.20
2022-12-12T12:19:56.253Z,9.65
2022-12-12T12:23:11.456Z,8.57
2022-12-12T12:26:52.390Z,8.90
2022-12-12T12:30:27.311Z,10.57
2022-12-12T12:33:33.079Z,9.90
2022-12-12T12:36:41.747Z,9.95
2022-12-12T12:40:04.954Z,10.85
2022-12-12T12:43:15.312Z,10.73
2022-12-12T12:46:46.992Z,12.52
2022-12-12T12:49:59.064Z,11.85
2022-12-12T12:53:15.186Z,10.35
2022-12-12T12:56:26.365Z,10.25
2022-12-12T12:59:37.113Z,9.70
2022-12-12T13:02:45.919Z,10.30
2022-12-12T13:06:01.809Z,10.68
2022-12-12T13:09:24.341Z,9.40
2022-12-12T13:12:37.344Z,11.23
2022-12-12T13:15:49.171Z,8.30
2022-12-12T13:19:21.581Z,10.25
2022-12-12T13:22:51.882Z,10.05
2022-12-12T13:26:09.645Z,9.00
2022-12-12T13:29:30.349Z,9.55
2022-12-12T13:33:17.965Z,11.27
2022-12-12T13:36:30.023Z,9.55
2022-12-12T13:39:37.686Z,9.48
2022-12-12T13:43:04.087Z,10.27
2022-12-12T13:46:21.044Z,11.25
2022-12-12T13:49:58.779Z,8.68
2022-12-12T13:53:06.735Z,7.80
2022-12-12T13:56:33.203Z,9.27
2022-12-12T14:00:16.627Z,10.32
2022-12-12T14:03:28.839Z,9.82
2022-12-12T14:06:32.221Z,9.68
2022-12-12T14:09:47.732Z,8.70
2022-12-12T14:12:53.198Z,10.25
2022-12-12T14:15:56.020Z,11.50
2022-12-12T14:19:08.789Z,9.55
2022-12-12T14:22:49.858Z,10.15
2022-12-12T14:25:52.912Z,11.40
2022-12-12T14:29:17.692Z,8.23
2022-12-12T14:32:46.134Z,9.10
2022-12-12T14:36:14.555Z,9.55
2022-12-12T14:39:59.934Z,9.57
2022-12-12T14:43:40.246Z,9.25
2022-12-12T14:46:43.075Z,9.52
2022-12-12T14:49:46.033Z,9.48
2022-12-12T14:52:48.884Z,9.25
2022-12-12T14:55:59.622Z,10.80
2022-12-12T14:59:06.662Z,10.05
2022-12-12T15:02:26.667Z,10.52
2022-12-12T15:05:31.796Z,10.93
2022-12-12T15:08:35.184Z,9.18
2022-12-12T15:11:38.062Z,9.55
2022-12-12T15:14:46.999Z,10.15
2022-12-12T15:17:53.906Z,9.63
2022-12-12T15:20:57.591Z,9.50
2022-12-12T15:24:00.548Z,10.32
2022-12-12T15:27:05.019Z,9.88
2022-12-12T15:30:29.121Z,12.20
2022-12-12T15:33:38.535Z,14.77
2022-12-12T15:36:43.553Z,9.63
2022-12-12T15:39:56.800Z,10.57
2022-12-12T15:43:03.305Z,11.57
2022-12-12T15:46:16.220Z,10.65
2022-12-12T15:49:55.699Z,11.07
2022-12-12T15:53:21.984Z,12.80
2022-12-12T15:56:28.847Z,14.38
2022-12-12T15:59:34.080Z,10.88
2022-12-12T16:02:37.069Z,10.38
2022-12-12T16:05:40.025Z,11.77
2022-12-12T16:08:48.524Z,12.27
2022-12-12T16:11:53.006Z,12.23
2022-12-12T16:14:56.411Z,9.55
2022-12-12T16:18:06.300Z,16.90
2022-12-12T16:21:09.808Z,12.50
2022-12-12T16:27:23.232Z,10.88
2022-12-12T16:33:34.234Z,9.52
2022-12-12T16:36:41.947Z,9.95
2022-12-12T16:39:45.416Z,9.57
2022-12-12T16:43:07.737Z,9.05
2022-12-12T16:49:23.074Z,12.25
2022-12-12T16:52:25.876Z,7.22
2022-12-12T16:55:28.688Z,7.18
2022-12-12T16:58:31.584Z,8.02
2022-12-12T17:01:38.762Z,8.20
2022-12-12T17:04:41.782Z,10.60
2022-12-12T17:07:44.708Z,8.27
2022-12-12T17:10:49.678Z,9.50
2022-12-12T17:13:53.225Z,9.80
2022-12-12T17:16:59.554Z,10.27
2022-12-12T17:20:02.370Z,9.15
2022-12-12T17:26:28.235Z,10.88
2022-12-12T17:29:30.983Z,8.30
2022-12-12T17:32:35.290Z,9.80
2022-12-12T17:35:38.930Z,8.68
2022-12-12T17:41:44.424Z,10.02
2022-12-12T17:44:48.228Z,11.25
2022-12-12T17:47:51.147Z,11.18
2022-12-12T17:51:05.114Z,8.93
2022-12-12T17:54:08.407Z,9.63
2022-12-12T17:57:11.287Z,10.30
2022-12-12T18:00:14.849Z,11.30
2022-12-12T18:03:17.795Z,11.73
2022-12-12T18:06:22.606Z,9.80
2022-12-12T18:09:27.124Z,11.70
2022-12-12T18:12:29.967Z,11.30
2022-12-12T18:15:32.815Z,13.57
2022-12-12T18:18:35.761Z,9.98
2022-12-12T18:25:02.234Z,14.15
2022-12-12T18:28:05.201Z,10.65
2022-12-12T18:31:08.441Z,12.15
2022-12-12T18:34:11.218Z,12.13
2022-12-12T18:37:14.195Z,13.25
2022-12-12T18:40:17.011Z,11.73
2022-12-12T18:43:20.146Z,10.35
2022-12-12T18:46:24.812Z,11.77
2022-12-12T18:49:27.687Z,11.15
2022-12-12T18:52:32.785Z,11.93
2022-12-12T18:55:39.870Z,12.52
2022-12-12T18:58:43.345Z,13.13
2022-12-12T19:04:51.291Z,13.25
2022-12-12T19:07:54.077Z,10.82
2022-12-12T19:10:56.962Z,13.20
2022-12-12T19:14:00.066Z,12.32
2022-12-12T19:17:02.957Z,13.07
2022-12-12T19:20:06.259Z,13.80
2022-12-12T19:23:09.038Z,13.57
2022-12-12T19:26:26.718Z,10.85
2022-12-12T19:29:29.557Z,13.48
2022-12-12T19:32:33.206Z,13.65
2022-12-12T19:35:37.278Z,12.52
2022-12-12T19:38:40.456Z,11.80
2022-12-12T19:41:43.271Z,14.13
2022-12-12T19:44:45.983Z,11.68
2022-12-12T19:47:48.793Z,11.55
2022-12-12T19:50:51.562Z,18.42
2022-12-12T19:53:56.726Z,14.55
2022-12-12T19:57:00.242Z,12.35
2022-12-12T20:03:11.927Z,11.38
2022-12-12T20:06:14.705Z,10.93
2022-12-12T20:09:23.401Z,11.82
2022-12-12T20:12:26.251Z,11.55
2022-12-12T20:15:29.020Z,11.88
2022-12-12T20:18:32.155Z,12.07
2022-12-12T20:25:00.123Z,12.40
2022-12-12T20:28:02.938Z,12.20
2022-12-12T20:31:16.466Z,10.90
2022-12-12T20:34:24.830Z,11.80
2022-12-12T20:37:27.960Z,17.67
2022-12-12T20:40:32.344Z,12.60
2022-12-12T20:43:35.062Z,12.52
2022-12-12T20:46:40.414Z,12.27
2022-12-12T20:49:43.764Z,12.80
2022-12-12T20:52:47.715Z,10.57
2022-12-12T20:55:50.481Z,11.27
2022-12-12T20:58:54.644Z,11.23
2022-12-12T21:01:57.544Z,12.45
2022-12-12T21:05:00.314Z,12.10
2022-12-12T21:08:03.173Z,10.07
2022-12-12T21:11:06.498Z,12.35
2022-12-12T21:14:09.592Z,10.80
2022-12-12T21:17:12.379Z,9.93
2022-12-12T21:20:15.268Z,22.83
2022-12-12T21:23:20.982Z,11.10
2022-12-12T21:26:28.977Z,11.68
2022-12-12T21:29:32.332Z,12.40
2022-12-12T21:32:35.074Z,12.57
2022-12-12T21:35:39.269Z,12.48
2022-12-12T21:38:42.334Z,11.73
2022-12-12T21:41:45.282Z,10.95
2022-12-12T21:44:48.487Z,10.60
2022-12-12T21:47:51.370Z,11.50
2022-12-12T21:50:55.350Z,8.75
2022-12-12T21:53:58.073Z,12.25
2022-12-12T21:57:01.206Z,11.57
2022-12-12T22:00:04.380Z,10.85
2022-12-12T22:03:14.945Z,11.50
2022-12-12T22:06:23.606Z,11.88
2022-12-12T22:09:26.767Z,13.10
2022-12-12T22:12:31.278Z,12.13
2022-12-12T22:15:33.799Z,12.70
2022-12-12T22:18:36.991Z,11.60
2022-12-12T22:21:39.694Z,14.53
2022-12-12T22:24:42.709Z,11.65
2022-12-12T22:27:45.219Z,10.15
2022-12-12T22:30:49.715Z,10.25
2022-12-12T22:34:20.331Z,15.55
2022-12-12T22:37:23.379Z,10.70
2022-12-12T22:40:25.917Z,13.68
2022-12-12T22:43:29.743Z,12.02
2022-12-12T22:46:38.108Z,10.27
2022-12-12T22:49:45.355Z,12.40
2022-12-12T22:52:47.837Z,15.37
2022-12-12T22:55:51.291Z,11.90
2022-12-12T22:58:54.187Z,12.15
2022-12-12T23:01:57.193Z,14.20
2022-12-12T23:04:59.924Z,14.90
2022-12-12T23:08:03.140Z,13.62
2022-12-12T23:11:11.717Z,14.50
2022-12-12T23:14:19.793Z,14.43
2022-12-12T23:17:22.357Z,15.02
2022-12-12T23:20:25.345Z,16.45
2022-12-12T23:23:29.721Z,15.65
2022-12-12T23:26:35.209Z,19.40
2022-12-12T23:29:38.098Z,17.10
2022-12-12T23:32:41.136Z,19.58
2022-12-12T23:35:50.142Z,15.68
2022-12-12T23:38:58.031Z,15.85
2022-12-12T23:42:00.651Z,16.70
2022-12-12T23:45:03.968Z,18.80
2022-12-12T23:48:07.111Z,15.43
2022-12-12T23:51:10.101Z,13.07
2022-12-12T23:54:16.474Z,15.77
2022-12-12T23:57:19.673Z,18.40
